sensor_id;sensor_type;location;lat;lon;timestamp;P1;P4;P2;P0;N10;N4;N25;N1;N05;TS
43196;SPS30;28816;49.852;18.282;2024-01-06T00:04:17;42.520000;;40.520000;36.100000;;;;;;
43196;SPS30;28816;49.852;18.282;2024-01-06T00:09:19;40.930000;;38.640000;34.280000;;;;;;
43196;SPS30;28816;49.852;18.282;2024-01-06T00:14:21;44.220000;;41.630000;36.820000;;;;;;
43196;SPS30;28816;49.852;18.282;2024-01-06T00:19:23;42.230000;;40.160000;35.920000;;;;;;
43196;SPS30;28816;49.852;18.282;2024-01-06T00:24:25;45.620000;;42.370000;36.700000;;;;;;
43196;SPS30;28816;49.852;18.282;2024-01-06T00:29:28;45.060000;;41.840000;36.230000;;;;;;
43196;SPS30;28816;49.852;18.282;2024-01-06T00:34:30;47.010000;;43.090000;36.950000;;;;;;
43196;SPS30;28816;49.852;18.282;2024-01-06T00:39:32;45.280000;;42.290000;37.160000;;;;;;
43196;SPS30;28816;49.852;18.282;2024-01-06T00:44:34;44.350000;;42.220000;38.180000;;;;;;
43196;SPS30;28816;49.852;18.282;2024-01-06T00:49:36;44.490000;;42.400000;37.650000;;;;;;
43196;SPS30;28816;49.852;18.282;2024-01-06T00:54:38;43.630000;;41.350000;37.110000;;;;;;
43196;SPS30;28816;49.852;18.282;2024-01-06T00:59:40;42.130000;;39.860000;35.370000;;;;;;
43196;SPS30;28816;49.852;18.282;2024-01-06T01:04:42;42.850000;;40.670000;36.120000;;;;;;
43196;SPS30;28816;49.852;18.282;2024-01-06T01:09:44;45.630000;;42.900000;38.190000;;;;;;
43196;SPS30;28816;49.852;18.282;2024-01-06T01:14:46;43.010000;;39.670000;34.200000;;;;;;
43196;SPS30;28816;49.852;18.282;2024-01-06T01:19:49;41.670000;;38.730000;33.780000;;;;;;
43196;SPS30;28816;49.852;18.282;2024-01-06T01:24:50;38.060000;;35.640000;31.030000;;;;;;
43196;SPS30;28816;49.852;18.282;2024-01-06T01:29:53;42.490000;;40.170000;35.190000;;;;;;
43196;SPS30;28816;49.852;18.282;2024-01-06T01:34:55;45.860000;;42.010000;35.760000;;;;;;
43196;SPS30;28816;49.852;18.282;2024-01-06T01:39:57;45.510000;;41.860000;36.320000;;;;;;
43196;SPS30;28816;49.852;18.282;2024-01-06T01:44:59;45.000000;;41.500000;36.380000;;;;;;
43196;SPS30;28816;49.852;18.282;2024-01-06T01:50:01;42.430000;;39.420000;34.100000;;;;;;
43196;SPS30;28816;49.852;18.282;2024-01-06T01:55:04;45.760000;;41.440000;34.790000;;;;;;
43196;SPS30;28816;49.852;18.282;2024-01-06T02:00:07;42.480000;;38.940000;33.440000;;;;;;
43196;SPS30;28816;49.852;18.282;2024-01-06T02:05:09;41.260000;;38.430000;33.680000;;;;;;
43196;SPS30;28816;49.852;18.282;2024-01-06T02:10:12;40.940000;;38.070000;33.340000;;;;;;
43196;SPS30;28816;49.852;18.282;2024-01-06T02:15:13;41.900000;;39.210000;34.300000;;;;;;
43196;SPS30;28816;49.852;18.282;2024-01-06T02:20:15;45.680000;;42.230000;36.410000;;;;;;
43196;SPS30;28816;49.852;18.282;2024-01-06T02:25:18;42.090000;;38.920000;34.000000;;;;;;
43196;SPS30;28816;49.852;18.282;2024-01-06T02:30:20;39.660000;;37.260000;32.790000;;;;;;
43196;SPS30;28816;49.852;18.282;2024-01-06T02:35:22;39.130000;;36.960000;32.750000;;;;;;
43196;SPS30;28816;49.852;18.282;2024-01-06T02:40:24;36.940000;;34.640000;30.660000;;;;;;
43196;SPS30;28816;49.852;18.282;2024-01-06T02:45:26;38.440000;;36.000000;31.830000;;;;;;
43196;SPS30;28816;49.852;18.282;2024-01-06T02:50:28;38.900000;;36.360000;32.260000;;;;;;
43196;SPS30;28816;49.852;18.282;2024-01-06T02:55:31;38.860000;;36.300000;31.850000;;;;;;
43196;SPS30;28816;49.852;18.282;2024-01-06T03:00:33;39.970000;;37.350000;32.520000;;;;;;
43196;SPS30;28816;49.852;18.282;2024-01-06T03:05:35;38.570000;;35.940000;30.890000;;;;;;
43196;SPS30;28816;49.852;18.282;2024-01-06T03:10:37;39.930000;;36.810000;31.650000;;;;;;
43196;SPS30;28816;49.852;18.282;2024-01-06T03:15:39;39.570000;;37.160000;33.020000;;;;;;
43196;SPS30;28816;49.852;18.282;2024-01-06T03:20:41;40.890000;;37.970000;33.090000;;;;;;
43196;SPS30;28816;49.852;18.282;2024-01-06T03:25:43;41.480000;;38.450000;33.640000;;;;;;
43196;SPS30;28816;49.852;18.282;2024-01-06T03:30:45;37.010000;;34.670000;30.880000;;;;;;
43196;SPS30;28816;49.852;18.282;2024-01-06T03:35:48;38.450000;;36.560000;32.540000;;;;;;
43196;SPS30;28816;49.852;18.282;2024-01-06T03:40:50;37.620000;;35.950000;32.300000;;;;;;
43196;SPS30;28816;49.852;18.282;2024-01-06T03:45:52;40.030000;;37.450000;32.870000;;;;;;
43196;SPS30;28816;49.852;18.282;2024-01-06T03:50:54;40.370000;;37.490000;32.530000;;;;;;
43196;SPS30;28816;49.852;18.282;2024-01-06T03:55:57;37.330000;;35.520000;32.060000;;;;;;
43196;SPS30;28816;49.852;18.282;2024-01-06T04:00:58;41.560000;;38.160000;33.010000;;;;;;
43196;SPS30;28816;49.852;18.282;2024-01-06T04:06:00;39.170000;;36.370000;31.740000;;;;;;
43196;SPS30;28816;49.852;18.282;2024-01-06T04:11:03;41.020000;;38.200000;33.340000;;;;;;
43196;SPS30;28816;49.852;18.282;2024-01-06T04:16:05;41.180000;;38.480000;33.740000;;;;;;
43196;SPS30;28816;49.852;18.282;2024-01-06T04:21:07;42.630000;;39.070000;33.310000;;;;;;
43196;SPS30;28816;49.852;18.282;2024-01-06T04:26:09;38.920000;;36.910000;32.900000;;;;;;
43196;SPS30;28816;49.852;18.282;2024-01-06T04:31:12;42.850000;;39.570000;34.090000;;;;;;
43196;SPS30;28816;49.852;18.282;2024-01-06T04:36:13;42.280000;;39.640000;34.700000;;;;;;
43196;SPS30;28816;49.852;18.282;2024-01-06T04:41:16;40.800000;;38.460000;34.270000;;;;;;
43196;SPS30;28816;49.852;18.282;2024-01-06T04:46:18;41.410000;;38.890000;34.260000;;;;;;
43196;SPS30;28816;49.852;18.282;2024-01-06T04:51:20;41.050000;;38.250000;33.640000;;;;;;
43196;SPS30;28816;49.852;18.282;2024-01-06T04:56:23;42.180000;;39.390000;34.480000;;;;;;
43196;SPS30;28816;49.852;18.282;2024-01-06T05:01:25;41.970000;;39.540000;35.090000;;;;;;
43196;SPS30;28816;49.852;18.282;2024-01-06T05:06:28;38.610000;;36.320000;32.250000;;;;;;
43196;SPS30;28816;49.852;18.282;2024-01-06T05:11:30;37.410000;;36.010000;32.310000;;;;;;
43196;SPS30;28816;49.852;18.282;2024-01-06T05:16:32;39.900000;;38.050000;33.970000;;;;;;
43196;SPS30;28816;49.852;18.282;2024-01-06T05:21:34;39.820000;;37.190000;32.760000;;;;;;
43196;SPS30;28816;49.852;18.282;2024-01-06T05:26:36;40.730000;;38.600000;34.960000;;;;;;
43196;SPS30;28816;49.852;18.282;2024-01-06T05:31:38;39.990000;;37.890000;33.800000;;;;;;
43196;SPS30;28816;49.852;18.282;2024-01-06T05:36:40;38.670000;;36.870000;33.550000;;;;;;
43196;SPS30;28816;49.852;18.282;2024-01-06T05:41:42;40.510000;;38.870000;34.810000;;;;;;
43196;SPS30;28816;49.852;18.282;2024-01-06T05:46:44;40.730000;;38.270000;34.050000;;;;;;
43196;SPS30;28816;49.852;18.282;2024-01-06T05:51:46;42.020000;;39.960000;35.660000;;;;;;
43196;SPS30;28816;49.852;18.282;2024-01-06T05:56:49;43.570000;;40.370000;34.950000;;;;;;
43196;SPS30;28816;49.852;18.282;2024-01-06T06:01:51;39.690000;;37.600000;33.650000;;;;;;
43196;SPS30;28816;49.852;18.282;2024-01-06T06:06:53;44.650000;;41.660000;36.580000;;;;;;
43196;SPS30;28816;49.852;18.282;2024-01-06T06:11:55;41.320000;;39.250000;34.700000;;;;;;
43196;SPS30;28816;49.852;18.282;2024-01-06T06:16:57;47.000000;;43.490000;37.580000;;;;;;
43196;SPS30;28816;49.852;18.282;2024-01-06T06:21:59;47.320000;;44.520000;39.610000;;;;;;
43196;SPS30;28816;49.852;18.282;2024-01-06T06:27:02;47.550000;;44.110000;38.740000;;;;;;
43196;SPS30;28816;49.852;18.282;2024-01-06T06:32:04;47.090000;;44.670000;39.730000;;;;;;
43196;SPS30;28816;49.852;18.282;2024-01-06T06:37:06;49.050000;;45.450000;39.590000;;;;;;
43196;SPS30;28816;49.852;18.282;2024-01-06T06:42:08;47.020000;;44.020000;38.770000;;;;;;
43196;SPS30;28816;49.852;18.282;2024-01-06T06:47:10;47.880000;;45.370000;40.230000;;;;;;
43196;SPS30;28816;49.852;18.282;2024-01-06T06:52:13;49.060000;;46.070000;40.850000;;;;;;
43196;SPS30;28816;49.852;18.282;2024-01-06T06:57:15;47.770000;;45.520000;40.600000;;;;;;
43196;SPS30;28816;49.852;18.282;2024-01-06T07:02:17;50.650000;;47.320000;41.740000;;;;;;
43196;SPS30;28816;49.852;18.282;2024-01-06T07:07:19;48.230000;;45.190000;39.790000;;;;;;
43196;SPS30;28816;49.852;18.282;2024-01-06T07:12:21;50.830000;;47.720000;42.170000;;;;;;
43196;SPS30;28816;49.852;18.282;2024-01-06T07:17:23;49.350000;;46.640000;40.870000;;;;;;
43196;SPS30;28816;49.852;18.282;2024-01-06T07:22:25;49.460000;;46.290000;40.800000;;;;;;
43196;SPS30;28816;49.852;18.282;2024-01-06T07:27:27;49.290000;;46.480000;41.430000;;;;;;
43196;SPS30;28816;49.852;18.282;2024-01-06T07:32:29;46.140000;;43.830000;39.890000;;;;;;
43196;SPS30;28816;49.852;18.282;2024-01-06T07:37:31;48.010000;;45.660000;40.720000;;;;;;
43196;SPS30;28816;49.852;18.282;2024-01-06T07:42:33;49.450000;;47.070000;41.900000;;;;;;
43196;SPS30;28816;49.852;18.282;2024-01-06T07:47:36;52.010000;;48.830000;43.210000;;;;;;
43196;SPS30;28816;49.852;18.282;2024-01-06T07:52:38;52.270000;;49.370000;44.140000;;;;;;
43196;SPS30;28816;49.852;18.282;2024-01-06T07:57:40;51.010000;;47.620000;42.040000;;;;;;
43196;SPS30;28816;49.852;18.282;2024-01-06T08:02:42;50.050000;;47.710000;42.970000;;;;;;
43196;SPS30;28816;49.852;18.282;2024-01-06T08:07:44;52.170000;;49.850000;44.760000;;;;;;
43196;SPS30;28816;49.852;18.282;2024-01-06T08:12:46;56.450000;;54.010000;48.350000;;;;;;
43196;SPS30;28816;49.852;18.282;2024-01-06T08:17:48;52.310000;;49.860000;45.370000;;;;;;
43196;SPS30;28816;49.852;18.282;2024-01-06T08:22:51;51.700000;;49.120000;44.310000;;;;;;
43196;SPS30;28816;49.852;18.282;2024-01-06T08:27:53;52.790000;;49.850000;44.230000;;;;;;
43196;SPS30;28816;49.852;18.282;2024-01-06T08:32:54;51.490000;;49.090000;43.890000;;;;;;
43196;SPS30;28816;49.852;18.282;2024-01-06T08:37:57;49.890000;;46.970000;41.970000;;;;;;
43196;SPS30;28816;49.852;18.282;2024-01-06T08:42:59;49.010000;;46.640000;41.700000;;;;;;
43196;SPS30;28816;49.852;18.282;2024-01-06T08:48:01;50.760000;;47.590000;41.950000;;;;;;
43196;SPS30;28816;49.852;18.282;2024-01-06T08:53:04;47.950000;;45.910000;41.620000;;;;;;
43196;SPS30;28816;49.852;18.282;2024-01-06T08:58:07;49.800000;;46.930000;41.890000;;;;;;
43196;SPS30;28816;49.852;18.282;2024-01-06T09:03:09;50.290000;;47.270000;41.860000;;;;;;
43196;SPS30;28816;49.852;18.282;2024-01-06T09:08:11;52.200000;;49.200000;44.110000;;;;;;
43196;SPS30;28816;49.852;18.282;2024-01-06T09:13:13;52.180000;;49.630000;44.610000;;;;;;
43196;SPS30;28816;49.852;18.282;2024-01-06T09:18:15;53.630000;;51.170000;46.150000;;;;;;
43196;SPS30;28816;49.852;18.282;2024-01-06T09:23:17;55.540000;;53.350000;48.390000;;;;;;
43196;SPS30;28816;49.852;18.282;2024-01-06T09:28:19;61.970000;;59.850000;55.150000;;;;;;
43196;SPS30;28816;49.852;18.282;2024-01-06T09:33:21;85.300000;;83.570000;77.100000;;;;;;
43196;SPS30;28816;49.852;18.282;2024-01-06T09:38:23;78.780000;;76.750000;71.010000;;;;;;
43196;SPS30;28816;49.852;18.282;2024-01-06T09:43:25;73.490000;;70.870000;64.530000;;;;;;
43196;SPS30;28816;49.852;18.282;2024-01-06T09:48:27;70.270000;;67.160000;60.920000;;;;;;
43196;SPS30;28816;49.852;18.282;2024-01-06T09:53:30;69.160000;;66.460000;60.040000;;;;;;
43196;SPS30;28816;49.852;18.282;2024-01-06T09:58:33;64.010000;;61.880000;56.130000;;;;;;
43196;SPS30;28816;49.852;18.282;2024-01-06T10:03:36;66.730000;;63.870000;57.910000;;;;;;
43196;SPS30;28816;49.852;18.282;2024-01-06T10:08:39;75.220000;;72.320000;65.620000;;;;;;
43196;SPS30;28816;49.852;18.282;2024-01-06T10:13:42;69.990000;;67.420000;61.060000;;;;;;
43196;SPS30;28816;49.852;18.282;2024-01-06T10:18:45;65.480000;;62.590000;56.100000;;;;;;
43196;SPS30;28816;49.852;18.282;2024-01-06T10:23:46;62.200000;;59.480000;53.680000;;;;;;
43196;SPS30;28816;49.852;18.282;2024-01-06T10:28:49;65.230000;;62.810000;57.260000;;;;;;
43196;SPS30;28816;49.852;18.282;2024-01-06T10:33:50;68.220000;;65.920000;60.360000;;;;;;
43196;SPS30;28816;49.852;18.282;2024-01-06T10:38:53;66.930000;;64.880000;59.960000;;;;;;
43196;SPS30;28816;49.852;18.282;2024-01-06T10:43:56;63.890000;;61.380000;55.840000;;;;;;
43196;SPS30;28816;49.852;18.282;2024-01-06T10:48:58;63.640000;;60.480000;54.490000;;;;;;
43196;SPS30;28816;49.852;18.282;2024-01-06T10:54:00;58.200000;;56.450000;51.430000;;;;;;
43196;SPS30;28816;49.852;18.282;2024-01-06T10:59:02;58.830000;;57.390000;52.490000;;;;;;
43196;SPS30;28816;49.852;18.282;2024-01-06T11:04:05;59.640000;;57.680000;52.840000;;;;;;
43196;SPS30;28816;49.852;18.282;2024-01-06T11:09:07;57.200000;;55.810000;51.510000;;;;;;
43196;SPS30;28816;49.852;18.282;2024-01-06T11:14:11;58.250000;;55.420000;50.040000;;;;;;
43196;SPS30;28816;49.852;18.282;2024-01-06T11:19:21;56.390000;;55.040000;50.300000;;;;;;
43196;SPS30;28816;49.852;18.282;2024-01-06T11:25:04;51.920000;;50.530000;46.570000;;;;;;
43196;SPS30;28816;49.852;18.282;2024-01-06T11:30:06;55.720000;;53.930000;49.370000;;;;;;
43196;SPS30;28816;49.852;18.282;2024-01-06T11:35:18;55.830000;;54.160000;49.500000;;;;;;
43196;SPS30;28816;49.852;18.282;2024-01-06T11:40:21;58.940000;;57.550000;52.750000;;;;;;
43196;SPS30;28816;49.852;18.282;2024-01-06T11:45:24;64.040000;;61.080000;54.560000;;;;;;
43196;SPS30;28816;49.852;18.282;2024-01-06T11:50:26;64.650000;;61.940000;55.980000;;;;;;
43196;SPS30;28816;49.852;18.282;2024-01-06T11:55:29;65.470000;;62.930000;57.120000;;;;;;
43196;SPS30;28816;49.852;18.282;2024-01-06T12:00:32;70.980000;;66.740000;59.130000;;;;;;
43196;SPS30;28816;49.852;18.282;2024-01-06T12:05:34;69.480000;;67.050000;59.930000;;;;;;
43196;SPS30;28816;49.852;18.282;2024-01-06T12:10:37;75.300000;;71.300000;63.710000;;;;;;
43196;SPS30;28816;49.852;18.282;2024-01-06T12:15:39;79.800000;;75.770000;67.380000;;;;;;
43196;SPS30;28816;49.852;18.282;2024-01-06T12:20:41;77.660000;;73.640000;65.710000;;;;;;
43196;SPS30;28816;49.852;18.282;2024-01-06T12:25:43;77.270000;;72.860000;64.980000;;;;;;
43196;SPS30;28816;49.852;18.282;2024-01-06T12:30:45;78.260000;;73.770000;65.460000;;;;;;
43196;SPS30;28816;49.852;18.282;2024-01-06T12:35:47;75.670000;;72.530000;65.410000;;;;;;
43196;SPS30;28816;49.852;18.282;2024-01-06T12:40:49;77.330000;;73.600000;66.570000;;;;;;
43196;SPS30;28816;49.852;18.282;2024-01-06T12:45:51;85.830000;;81.350000;72.310000;;;;;;
43196;SPS30;28816;49.852;18.282;2024-01-06T12:50:53;86.090000;;82.250000;73.720000;;;;;;
43196;SPS30;28816;49.852;18.282;2024-01-06T12:55:55;95.010000;;89.850000;79.310000;;;;;;
43196;SPS30;28816;49.852;18.282;2024-01-06T13:00:57;93.130000;;88.670000;80.280000;;;;;;
43196;SPS30;28816;49.852;18.282;2024-01-06T13:05:59;96.790000;;89.890000;78.680000;;;;;;
43196;SPS30;28816;49.852;18.282;2024-01-06T13:11:02;90.350000;;84.160000;74.070000;;;;;;
43196;SPS30;28816;49.852;18.282;2024-01-06T13:16:04;87.420000;;81.070000;70.090000;;;;;;
43196;SPS30;28816;49.852;18.282;2024-01-06T13:21:05;85.380000;;80.090000;70.850000;;;;;;
43196;SPS30;28816;49.852;18.282;2024-01-06T13:26:07;78.120000;;74.460000;66.000000;;;;;;
43196;SPS30;28816;49.852;18.282;2024-01-06T13:31:09;74.110000;;70.760000;63.640000;;;;;;
43196;SPS30;28816;49.852;18.282;2024-01-06T13:36:11;73.430000;;70.210000;63.270000;;;;;;
43196;SPS30;28816;49.852;18.282;2024-01-06T13:41:13;70.270000;;66.900000;60.020000;;;;;;
43196;SPS30;28816;49.852;18.282;2024-01-06T13:46:15;70.840000;;67.520000;60.520000;;;;;;
43196;SPS30;28816;49.852;18.282;2024-01-06T13:51:17;69.330000;;66.760000;60.300000;;;;;;
43196;SPS30;28816;49.852;18.282;2024-01-06T13:56:19;71.430000;;67.640000;60.250000;;;;;;
43196;SPS30;28816;49.852;18.282;2024-01-06T14:01:21;72.630000;;69.250000;61.710000;;;;;;
43196;SPS30;28816;49.852;18.282;2024-01-06T14:06:24;71.800000;;67.200000;59.120000;;;;;;
43196;SPS30;28816;49.852;18.282;2024-01-06T14:11:26;72.850000;;69.220000;62.290000;;;;;;
43196;SPS30;28816;49.852;18.282;2024-01-06T14:16:28;71.180000;;67.860000;60.620000;;;;;;
43196;SPS30;28816;49.852;18.282;2024-01-06T14:21:30;71.420000;;67.610000;60.180000;;;;;;
43196;SPS30;28816;49.852;18.282;2024-01-06T14:26:32;70.080000;;66.880000;59.320000;;;;;;
43196;SPS30;28816;49.852;18.282;2024-01-06T14:31:34;68.060000;;65.340000;58.750000;;;;;;
43196;SPS30;28816;49.852;18.282;2024-01-06T14:36:37;65.980000;;63.530000;57.760000;;;;;;
43196;SPS30;28816;49.852;18.282;2024-01-06T14:41:39;66.230000;;62.870000;56.060000;;;;;;
43196;SPS30;28816;49.852;18.282;2024-01-06T14:46:41;67.530000;;64.270000;57.200000;;;;;;
43196;SPS30;28816;49.852;18.282;2024-01-06T14:51:43;64.580000;;62.070000;55.500000;;;;;;
43196;SPS30;28816;49.852;18.282;2024-01-06T14:56:44;62.960000;;60.300000;54.500000;;;;;;
43196;SPS30;28816;49.852;18.282;2024-01-06T15:01:47;60.930000;;58.770000;53.360000;;;;;;
43196;SPS30;28816;49.852;18.282;2024-01-06T15:06:49;59.830000;;57.570000;52.250000;;;;;;
43196;SPS30;28816;49.852;18.282;2024-01-06T15:11:51;59.520000;;57.570000;52.350000;;;;;;
43196;SPS30;28816;49.852;18.282;2024-01-06T15:16:53;62.370000;;60.030000;54.680000;;;;;;
43196;SPS30;28816;49.852;18.282;2024-01-06T15:21:55;64.540000;;62.140000;56.310000;;;;;;
43196;SPS30;28816;49.852;18.282;2024-01-06T15:26:57;57.560000;;55.010000;49.830000;;;;;;
43196;SPS30;28816;49.852;18.282;2024-01-06T15:31:59;54.300000;;53.120000;49.050000;;;;;;
43196;SPS30;28816;49.852;18.282;2024-01-06T15:37:01;54.660000;;53.150000;48.710000;;;;;;
43196;SPS30;28816;49.852;18.282;2024-01-06T15:42:03;59.180000;;56.610000;51.100000;;;;;;
43196;SPS30;28816;49.852;18.282;2024-01-06T15:47:05;60.570000;;57.830000;52.550000;;;;;;
43196;SPS30;28816;49.852;18.282;2024-01-06T15:52:07;64.630000;;62.210000;56.940000;;;;;;
43196;SPS30;28816;49.852;18.282;2024-01-06T15:57:09;55.550000;;53.160000;48.390000;;;;;;
43196;SPS30;28816;49.852;18.282;2024-01-06T16:02:11;56.570000;;55.130000;50.560000;;;;;;
43196;SPS30;28816;49.852;18.282;2024-01-06T16:07:13;58.930000;;56.630000;51.690000;;;;;;
43196;SPS30;28816;49.852;18.282;2024-01-06T16:12:15;61.100000;;58.010000;52.390000;;;;;;
43196;SPS30;28816;49.852;18.282;2024-01-06T16:17:17;52.620000;;51.380000;47.370000;;;;;;
43196;SPS30;28816;49.852;18.282;2024-01-06T16:22:19;53.870000;;52.440000;48.400000;;;;;;
43196;SPS30;28816;49.852;18.282;2024-01-06T16:27:21;49.400000;;47.950000;44.280000;;;;;;
43196;SPS30;28816;49.852;18.282;2024-01-06T16:32:23;47.780000;;45.860000;41.850000;;;;;;
43196;SPS30;28816;49.852;18.282;2024-01-06T16:37:25;46.050000;;45.400000;42.120000;;;;;;
43196;SPS30;28816;49.852;18.282;2024-01-06T16:42:26;48.040000;;46.760000;42.440000;;;;;;
43196;SPS30;28816;49.852;18.282;2024-01-06T16:47:28;45.230000;;43.900000;39.870000;;;;;;
43196;SPS30;28816;49.852;18.282;2024-01-06T16:52:30;43.990000;;43.100000;39.550000;;;;;;
43196;SPS30;28816;49.852;18.282;2024-01-06T16:57:32;44.890000;;43.610000;39.850000;;;;;;
43196;SPS30;28816;49.852;18.282;2024-01-06T17:02:34;42.930000;;41.810000;38.590000;;;;;;
43196;SPS30;28816;49.852;18.282;2024-01-06T17:07:36;42.740000;;41.330000;38.170000;;;;;;
43196;SPS30;28816;49.852;18.282;2024-01-06T17:12:38;42.520000;;41.560000;38.280000;;;;;;
43196;SPS30;28816;49.852;18.282;2024-01-06T17:17:41;43.450000;;42.790000;39.480000;;;;;;
43196;SPS30;28816;49.852;18.282;2024-01-06T17:22:43;44.460000;;43.000000;39.150000;;;;;;
43196;SPS30;28816;49.852;18.282;2024-01-06T17:27:44;46.280000;;45.410000;41.510000;;;;;;
43196;SPS30;28816;49.852;18.282;2024-01-06T17:32:47;42.980000;;42.030000;38.620000;;;;;;
43196;SPS30;28816;49.852;18.282;2024-01-06T17:37:49;42.300000;;41.090000;38.570000;;;;;;
43196;SPS30;28816;49.852;18.282;2024-01-06T17:42:51;49.430000;;47.130000;42.330000;;;;;;
43196;SPS30;28816;49.852;18.282;2024-01-06T17:47:53;47.090000;;46.120000;42.890000;;;;;;
43196;SPS30;28816;49.852;18.282;2024-01-06T17:52:55;46.780000;;45.600000;41.830000;;;;;;
43196;SPS30;28816;49.852;18.282;2024-01-06T17:57:57;45.150000;;43.800000;40.320000;;;;;;
43196;SPS30;28816;49.852;18.282;2024-01-06T18:02:59;44.610000;;43.240000;39.960000;;;;;;
43196;SPS30;28816;49.852;18.282;2024-01-06T18:08:01;44.400000;;42.950000;39.130000;;;;;;
43196;SPS30;28816;49.852;18.282;2024-01-06T18:13:04;46.430000;;45.170000;41.010000;;;;;;
43196;SPS30;28816;49.852;18.282;2024-01-06T18:18:06;45.330000;;43.620000;39.430000;;;;;;
43196;SPS30;28816;49.852;18.282;2024-01-06T18:23:08;43.160000;;41.890000;38.190000;;;;;;
43196;SPS30;28816;49.852;18.282;2024-01-06T18:28:10;42.040000;;40.630000;37.270000;;;;;;
43196;SPS30;28816;49.852;18.282;2024-01-06T18:33:13;40.880000;;39.790000;36.370000;;;;;;
43196;SPS30;28816;49.852;18.282;2024-01-06T18:38:14;39.460000;;37.850000;34.240000;;;;;;
43196;SPS30;28816;49.852;18.282;2024-01-06T18:43:16;37.640000;;36.530000;33.320000;;;;;;
43196;SPS30;28816;49.852;18.282;2024-01-06T18:48:18;40.160000;;38.510000;34.570000;;;;;;
43196;SPS30;28816;49.852;18.282;2024-01-06T18:53:20;38.650000;;37.430000;33.710000;;;;;;
43196;SPS30;28816;49.852;18.282;2024-01-06T18:58:22;37.890000;;36.710000;33.680000;;;;;;
43196;SPS30;28816;49.852;18.282;2024-01-06T19:03:25;37.300000;;35.770000;32.470000;;;;;;
43196;SPS30;28816;49.852;18.282;2024-01-06T19:08:27;36.350000;;35.070000;31.860000;;;;;;
43196;SPS30;28816;49.852;18.282;2024-01-06T19:13:29;34.930000;;33.420000;30.180000;;;;;;
43196;SPS30;28816;49.852;18.282;2024-01-06T19:18:31;34.510000;;33.510000;30.650000;;;;;;
43196;SPS30;28816;49.852;18.282;2024-01-06T19:23:33;33.640000;;32.650000;30.060000;;;;;;
43196;SPS30;28816;49.852;18.282;2024-01-06T19:28:36;34.080000;;33.070000;30.380000;;;;;;
43196;SPS30;28816;49.852;18.282;2024-01-06T19:33:38;34.190000;;32.890000;29.420000;;;;;;
43196;SPS30;28816;49.852;18.282;2024-01-06T19:38:40;34.150000;;32.860000;30.080000;;;;;;
43196;SPS30;28816;49.852;18.282;2024-01-06T19:43:43;32.450000;;31.650000;29.370000;;;;;;
43196;SPS30;28816;49.852;18.282;2024-01-06T19:48:45;29.550000;;29.000000;26.810000;;;;;;
43196;SPS30;28816;49.852;18.282;2024-01-06T19:53:47;30.270000;;29.380000;26.920000;;;;;;
43196;SPS30;28816;49.852;18.282;2024-01-06T19:58:49;30.400000;;29.320000;26.890000;;;;;;
43196;SPS30;28816;49.852;18.282;2024-01-06T20:03:51;30.310000;;29.400000;26.940000;;;;;;
43196;SPS30;28816;49.852;18.282;2024-01-06T20:08:53;30.590000;;29.630000;27.130000;;;;;;
43196;SPS30;28816;49.852;18.282;2024-01-06T20:13:55;28.250000;;27.480000;25.410000;;;;;;
43196;SPS30;28816;49.852;18.282;2024-01-06T20:18:58;29.480000;;28.280000;25.540000;;;;;;
43196;SPS30;28816;49.852;18.282;2024-01-06T20:24:00;27.050000;;26.490000;24.410000;;;;;;
43196;SPS30;28816;49.852;18.282;2024-01-06T20:29:02;25.300000;;24.640000;22.640000;;;;;;
43196;SPS30;28816;49.852;18.282;2024-01-06T20:34:05;27.070000;;25.960000;23.390000;;;;;;
43196;SPS30;28816;49.852;18.282;2024-01-06T20:39:07;24.090000;;23.700000;21.890000;;;;;;
43196;SPS30;28816;49.852;18.282;2024-01-06T20:44:09;25.350000;;24.740000;22.820000;;;;;;
43196;SPS30;28816;49.852;18.282;2024-01-06T20:49:11;25.640000;;25.070000;22.820000;;;;;;
43196;SPS30;28816;49.852;18.282;2024-01-06T20:54:13;24.770000;;24.160000;22.410000;;;;;;
43196;SPS30;28816;49.852;18.282;2024-01-06T20:59:15;24.560000;;23.680000;21.910000;;;;;;
43196;SPS30;28816;49.852;18.282;2024-01-06T21:04:17;23.430000;;22.560000;20.750000;;;;;;
43196;SPS30;28816;49.852;18.282;2024-01-06T21:09:19;24.320000;;23.880000;21.710000;;;;;;
43196;SPS30;28816;49.852;18.282;2024-01-06T21:14:21;22.650000;;22.210000;20.270000;;;;;;
43196;SPS30;28816;49.852;18.282;2024-01-06T21:19:23;23.190000;;22.570000;20.430000;;;;;;
43196;SPS30;28816;49.852;18.282;2024-01-06T21:24:25;21.110000;;20.880000;19.250000;;;;;;
43196;SPS30;28816;49.852;18.282;2024-01-06T21:29:27;20.330000;;19.930000;18.310000;;;;;;
43196;SPS30;28816;49.852;18.282;2024-01-06T21:34:30;18.910000;;18.500000;17.140000;;;;;;
43196;SPS30;28816;49.852;18.282;2024-01-06T21:39:32;20.030000;;19.620000;18.240000;;;;;;
43196;SPS30;28816;49.852;18.282;2024-01-06T21:44:34;18.410000;;18.210000;17.120000;;;;;;
43196;SPS30;28816;49.852;18.282;2024-01-06T21:49:37;18.560000;;18.200000;16.760000;;;;;;
43196;SPS30;28816;49.852;18.282;2024-01-06T21:54:39;17.830000;;17.570000;16.390000;;;;;;
43196;SPS30;28816;49.852;18.282;2024-01-06T21:59:41;18.610000;;18.360000;16.840000;;;;;;
43196;SPS30;28816;49.852;18.282;2024-01-06T22:04:44;17.330000;;17.060000;16.050000;;;;;;
43196;SPS30;28816;49.852;18.282;2024-01-06T22:09:47;18.910000;;18.490000;17.130000;;;;;;
43196;SPS30;28816;49.852;18.282;2024-01-06T22:14:49;17.740000;;17.450000;16.340000;;;;;;
43196;SPS30;28816;49.852;18.282;2024-01-06T22:19:51;17.780000;;17.530000;16.370000;;;;;;
43196;SPS30;28816;49.852;18.282;2024-01-06T22:24:53;18.360000;;17.820000;16.340000;;;;;;
43196;SPS30;28816;49.852;18.282;2024-01-06T22:29:55;16.510000;;16.230000;15.180000;;;;;;